createdAt,value
2018-03-08T00:01:22.550Z,6.89
2018-03-08T00:03:50.197Z,6.85
2018-03-08T00:06:17.797Z,6.85
2018-03-08T00:08:45.444Z,6.71
2018-03-08T00:11:13.047Z,6.78
2018-03-08T00:13:40.684Z,6.80
2018-03-08T00:16:08.298Z,6.79
2018-03-08T00:18:35.937Z,6.62
2018-03-08T00:21:03.527Z,6.56
2018-03-08T00:23:31.190Z,6.63
2018-03-08T00:25:58.787Z,6.60
2018-03-08T00:28:26.435Z,6.54
2018-03-08T00:30:54.040Z,6.52
2018-03-08T00:33:21.709Z,6.54
2018-03-08T00:35:49.309Z,6.48
2018-03-08T00:38:17.031Z,6.52
2018-03-08T00:40:44.623Z,6.51
2018-03-08T00:43:12.286Z,6.46
2018-03-08T00:45:39.880Z,6.38
2018-03-08T00:48:07.537Z,6.38
2018-03-08T00:50:35.136Z,6.28
2018-03-08T00:53:02.772Z,6.18
2018-03-08T00:55:30.364Z,6.10
2018-03-08T00:57:58.009Z,6.00
2018-03-08T01:00:25.648Z,5.92
2018-03-08T01:02:53.287Z,5.74
2018-03-08T01:05:20.918Z,5.65
2018-03-08T01:07:48.561Z,5.59
2018-03-08T01:10:16.154Z,5.57
2018-03-08T01:12:43.797Z,5.62
2018-03-08T01:15:11.410Z,5.62
2018-03-08T01:17:39.065Z,5.70
2018-03-08T01:20:06.704Z,5.64
2018-03-08T01:22:34.340Z,5.58
2018-03-08T01:25:01.948Z,5.45
2018-03-08T01:27:29.596Z,5.55
2018-03-08T01:29:57.200Z,5.54
2018-03-08T01:32:24.837Z,5.50
2018-03-08T01:34:52.437Z,5.42
2018-03-08T01:37:20.097Z,5.60
2018-03-08T01:39:47.697Z,5.68
2018-03-08T01:42:15.350Z,5.48
2018-03-08T01:44:42.961Z,5.66
2018-03-08T01:47:10.599Z,5.64
2018-03-08T01:49:38.248Z,5.58
2018-03-08T01:52:11.884Z,5.59
2018-03-08T01:54:39.526Z,5.61
2018-03-08T01:57:07.128Z,5.58
2018-03-08T01:59:34.796Z,5.39
2018-03-08T02:02:02.405Z,5.21
2018-03-08T02:04:30.045Z,5.22
2018-03-08T02:06:57.671Z,5.11
2018-03-08T02:09:25.322Z,5.24
2018-03-08T02:11:52.919Z,5.14
2018-03-08T02:14:20.568Z,5.17
2018-03-08T02:16:48.176Z,5.27
2018-03-08T02:19:15.864Z,5.36
2018-03-08T02:21:43.463Z,5.50
2018-03-08T02:24:11.115Z,5.43
2018-03-08T02:26:38.726Z,5.48
2018-03-08T02:29:06.362Z,5.62
2018-03-08T02:31:33.964Z,5.44
2018-03-08T02:34:01.609Z,5.48
2018-03-08T02:36:29.243Z,5.27
2018-03-08T02:38:56.878Z,5.30
2018-03-08T02:41:24.480Z,5.38
2018-03-08T02:43:52.116Z,5.38
2018-03-08T02:46:19.720Z,5.64
2018-03-08T02:48:47.353Z,5.85
2018-03-08T02:51:14.958Z,5.86
2018-03-08T02:53:42.656Z,5.53
2018-03-08T02:56:10.257Z,5.38
2018-03-08T02:58:37.901Z,5.38
2018-03-08T03:01:05.492Z,5.49
2018-03-08T03:03:33.147Z,5.73
2018-03-08T03:06:00.750Z,5.63
2018-03-08T03:08:28.405Z,5.66
2018-03-08T03:10:56.006Z,5.68
2018-03-08T03:13:23.657Z,5.58
2018-03-08T03:15:51.268Z,5.16
2018-03-08T03:18:18.929Z,4.84
2018-03-08T03:20:46.527Z,4.81
2018-03-08T03:23:14.180Z,4.90
2018-03-08T03:25:41.784Z,4.90
2018-03-08T03:28:09.439Z,5.08
2018-03-08T03:30:37.044Z,4.92
2018-03-08T03:33:04.689Z,4.74
2018-03-08T03:35:32.301Z,4.77
2018-03-08T03:37:59.960Z,4.46
2018-03-08T03:40:27.568Z,4.48
2018-03-08T03:42:55.287Z,4.60
2018-03-08T03:45:22.893Z,4.53
2018-03-08T03:47:50.538Z,4.59
2018-03-08T03:50:18.144Z,4.62
2018-03-08T03:52:45.795Z,4.52
2018-03-08T03:55:13.445Z,4.67
2018-03-08T03:57:41.051Z,4.91
2018-03-08T04:00:08.686Z,4.98
2018-03-08T04:02:36.285Z,5.00
2018-03-08T04:05:03.974Z,5.21
2018-03-08T04:07:31.588Z,5.15
2018-03-08T04:09:59.228Z,5.26
2018-03-08T04:12:26.880Z,5.20
2018-03-08T04:14:54.541Z,5.07
2018-03-08T04:17:22.157Z,4.75
2018-03-08T04:19:49.858Z,4.62
2018-03-08T04:22:17.464Z,4.45
2018-03-08T04:24:45.145Z,4.16
2018-03-08T04:27:12.766Z,4.30
2018-03-08T04:29:40.418Z,4.20
2018-03-08T04:32:08.066Z,4.14
2018-03-08T04:34:35.705Z,3.99
2018-03-08T04:37:03.307Z,4.27
2018-03-08T04:39:30.956Z,4.44
2018-03-08T04:41:58.578Z,4.61
2018-03-08T04:44:26.225Z,4.67
2018-03-08T04:46:53.828Z,4.62
2018-03-08T04:49:21.471Z,4.60
2018-03-08T04:51:49.075Z,4.65
2018-03-08T04:54:16.810Z,4.97
2018-03-08T04:56:44.406Z,4.99
2018-03-08T04:59:12.036Z,4.84
2018-03-08T05:01:39.636Z,4.94
2018-03-08T05:04:07.276Z,5.05
2018-03-08T05:06:34.891Z,5.02
2018-03-08T05:09:02.548Z,5.17
2018-03-08T05:11:30.152Z,5.16
2018-03-08T05:13:57.791Z,5.21
2018-03-08T05:16:25.524Z,5.12
2018-03-08T05:18:53.196Z,5.04
2018-03-08T05:21:20.797Z,5.00
2018-03-08T05:23:48.497Z,4.98
2018-03-08T05:26:16.116Z,4.85
2018-03-08T05:28:43.763Z,5.02
2018-03-08T05:31:11.397Z,5.11
2018-03-08T05:33:39.088Z,4.81
2018-03-08T05:36:06.693Z,4.61
2018-03-08T05:38:34.352Z,4.21
2018-03-08T05:41:01.963Z,3.71
2018-03-08T05:43:29.607Z,3.47
2018-03-08T05:45:57.201Z,3.54
2018-03-08T05:48:24.860Z,3.90
2018-03-08T05:50:52.480Z,4.26
2018-03-08T05:53:20.131Z,4.72
2018-03-08T05:55:47.736Z,4.98
2018-03-08T05:58:15.389Z,5.06
2018-03-08T06:00:42.988Z,5.12
2018-03-08T06:03:10.641Z,5.15
2018-03-08T06:05:38.288Z,5.28
2018-03-08T06:08:05.884Z,5.35
2018-03-08T06:10:33.529Z,5.57
2018-03-08T06:13:01.156Z,5.68
2018-03-08T06:15:28.803Z,5.76
2018-03-08T06:17:56.433Z,5.67
2018-03-08T06:20:24.077Z,5.92
2018-03-08T06:22:51.688Z,5.87
2018-03-08T06:25:19.346Z,5.54
2018-03-08T06:27:46.979Z,5.44
2018-03-08T06:30:14.629Z,5.36
2018-03-08T06:32:42.240Z,5.11
2018-03-08T06:35:10.040Z,4.96
2018-03-08T06:37:37.648Z,4.98
2018-03-08T06:40:05.306Z,5.03
2018-03-08T06:42:32.945Z,5.36
2018-03-08T06:45:00.630Z,5.56
2018-03-08T06:47:28.250Z,5.87
2018-03-08T06:49:55.928Z,5.92
2018-03-08T06:52:23.529Z,6.07
2018-03-08T06:54:51.186Z,6.25
2018-03-08T06:57:18.840Z,6.51
2018-03-08T06:59:46.488Z,6.78
2018-03-08T07:02:14.093Z,7.08
2018-03-08T07:04:41.805Z,7.26
2018-03-08T07:07:09.425Z,7.27
2018-03-08T07:09:37.105Z,7.33
2018-03-08T07:12:04.721Z,7.39
2018-03-08T07:14:32.368Z,7.30
2018-03-08T07:16:59.981Z,7.19
2018-03-08T07:19:27.647Z,7.12
2018-03-08T07:21:55.260Z,7.02
2018-03-08T07:24:22.908Z,7.16
2018-03-08T07:26:50.526Z,7.27
2018-03-08T07:29:18.186Z,7.24
2018-03-08T07:31:45.792Z,7.05
2018-03-08T07:34:13.456Z,7.00
2018-03-08T07:36:41.128Z,7.03
2018-03-08T07:39:08.785Z,7.00
2018-03-08T07:41:36.402Z,6.72
2018-03-08T07:44:04.070Z,6.22
2018-03-08T07:46:31.689Z,6.08
2018-03-08T07:48:59.308Z,6.34
2018-03-08T07:51:26.962Z,6.59
2018-03-08T07:53:54.585Z,7.07
2018-03-08T07:56:22.220Z,7.23
2018-03-08T07:58:49.846Z,7.08
2018-03-08T08:01:17.493Z,6.64
2018-03-08T08:03:45.101Z,6.25
2018-03-08T08:06:24.499Z,6.14
2018-03-08T08:09:09.787Z,6.29
2018-03-08T08:11:37.448Z,6.58
2018-03-08T08:14:05.075Z,6.58
2018-03-08T08:16:32.742Z,6.76
2018-03-08T08:19:00.381Z,6.72
2018-03-08T08:21:28.254Z,6.64
2018-03-08T08:23:56.189Z,6.89
2018-03-08T08:26:23.847Z,7.18
2018-03-08T08:28:51.470Z,6.77
2018-03-08T08:31:19.299Z,7.05
2018-03-08T08:33:46.910Z,6.99
2018-03-08T08:36:14.565Z,7.42
2018-03-08T08:38:42.194Z,8.06
2018-03-08T08:41:09.810Z,7.98
2018-03-08T08:43:37.460Z,7.92
2018-03-08T08:46:05.085Z,8.24
2018-03-08T08:48:32.732Z,8.66
2018-03-08T08:51:00.348Z,8.33
2018-03-08T08:53:28.074Z,7.68
2018-03-08T08:55:55.696Z,7.84
2018-03-08T08:58:23.359Z,8.11
2018-03-08T09:00:50.974Z,7.43
2018-03-08T09:03:18.620Z,7.01
2018-03-08T09:05:46.236Z,7.42
2018-03-08T09:08:13.877Z,8.02
2018-03-08T09:10:41.496Z,8.22
2018-03-08T09:13:09.141Z,8.08
2018-03-08T09:15:36.750Z,8.63
2018-03-08T09:18:04.404Z,9.04
2018-03-08T09:20:32.018Z,8.98
2018-03-08T09:22:59.677Z,8.77
2018-03-08T09:25:27.270Z,8.48
2018-03-08T09:27:54.927Z,7.86
2018-03-08T09:30:22.536Z,8.54
2018-03-08T09:32:50.185Z,9.12
2018-03-08T09:35:17.818Z,9.52
2018-03-08T09:37:45.465Z,8.97
2018-03-08T09:40:13.077Z,8.68
2018-03-08T09:42:40.683Z,8.42
2018-03-08T09:45:08.343Z,8.60
2018-03-08T09:47:35.964Z,9.19
2018-03-08T09:50:03.623Z,9.01
2018-03-08T09:52:31.244Z,10.48
2018-03-08T09:54:58.928Z,10.12
2018-03-08T09:57:26.538Z,10.14
2018-03-08T09:59:54.908Z,10.24
2018-03-08T10:02:22.642Z,11.43
2018-03-08T10:04:50.314Z,11.65
2018-03-08T10:07:18.000Z,11.55
2018-03-08T10:09:45.675Z,11.41
2018-03-08T10:12:13.289Z,10.91
2018-03-08T10:14:40.951Z,10.12
2018-03-08T10:17:08.568Z,10.39
2018-03-08T10:19:36.225Z,10.45
2018-03-08T10:22:03.849Z,10.29
2018-03-08T10:24:31.577Z,10.28
2018-03-08T10:26:59.259Z,9.93
2018-03-08T10:29:26.885Z,9.76
2018-03-08T10:31:54.537Z,9.74
2018-03-08T10:34:22.214Z,9.45
2018-03-08T10:36:50.035Z,9.57
2018-03-08T10:39:28.255Z,9.88
2018-03-08T10:41:45.775Z,9.77
2018-03-08T10:44:13.440Z,9.88
2018-03-08T10:46:41.137Z,10.02
2018-03-08T10:49:08.841Z,10.17
2018-03-08T10:51:36.988Z,10.90
2018-03-08T10:54:04.697Z,11.73
2018-03-08T10:56:32.443Z,12.79
2018-03-08T10:59:00.256Z,12.52
2018-03-08T11:01:28.031Z,12.45
2018-03-08T11:03:55.796Z,11.93
2018-03-08T11:06:29.395Z,11.56
2018-03-08T11:08:57.159Z,11.70
2018-03-08T11:11:25.130Z,11.58
2018-03-08T11:13:52.893Z,11.11
2018-03-08T11:16:20.612Z,10.92
2018-03-08T11:18:48.422Z,10.61
2018-03-08T11:21:16.393Z,10.51
2018-03-08T11:23:44.155Z,10.12
2018-03-08T11:26:11.984Z,10.11
2018-03-08T11:28:39.785Z,10.24
2018-03-08T11:31:07.550Z,11.01
2018-03-08T11:33:35.297Z,11.68
2018-03-08T11:36:07.916Z,11.03
2018-03-08T11:38:35.522Z,10.94
2018-03-08T11:41:03.173Z,10.81
2018-03-08T11:43:30.800Z,10.82
2018-03-08T11:45:58.452Z,10.63
2018-03-08T11:48:26.051Z,11.14
2018-03-08T11:50:53.692Z,10.98
2018-03-08T11:53:21.309Z,11.06
2018-03-08T11:55:48.970Z,11.04
2018-03-08T11:58:16.588Z,11.29
2018-03-08T12:00:44.240Z,11.12
2018-03-08T12:03:11.863Z,11.10
2018-03-08T12:05:39.568Z,11.07
2018-03-08T12:08:07.189Z,11.14
2018-03-08T12:10:34.881Z,11.40
2018-03-08T12:13:02.593Z,12.31
2018-03-08T12:15:30.274Z,12.76
2018-03-08T12:17:58.011Z,12.27
2018-03-08T12:20:25.807Z,12.17
2018-03-08T12:22:53.507Z,12.49
2018-03-08T12:25:21.324Z,12.44
2018-03-08T12:27:49.096Z,12.53
2018-03-08T12:30:16.758Z,12.11
2018-03-08T12:32:44.525Z,12.12
2018-03-08T12:35:12.344Z,12.14
2018-03-08T12:37:40.050Z,12.93
2018-03-08T12:40:07.819Z,12.64
2018-03-08T12:42:35.544Z,12.73
2018-03-08T12:45:03.350Z,12.32
2018-03-08T12:47:31.109Z,13.06
2018-03-08T12:49:58.779Z,13.08
2018-03-08T12:52:26.604Z,12.47
2018-03-08T12:54:54.503Z,12.38
2018-03-08T12:57:22.270Z,12.59
2018-03-08T12:59:50.032Z,12.43
2018-03-08T13:02:17.800Z,12.35
2018-03-08T13:04:45.508Z,12.24
2018-03-08T13:07:13.324Z,12.18
2018-03-08T13:09:41.088Z,11.89
2018-03-08T13:12:08.853Z,11.69
2018-03-08T13:14:36.514Z,11.62
2018-03-08T13:17:05.164Z,11.61
2018-03-08T13:19:32.827Z,11.50
2018-03-08T13:22:00.444Z,11.58
2018-03-08T13:24:28.065Z,11.33
2018-03-08T13:26:55.713Z,11.51
2018-03-08T13:29:23.336Z,11.77
2018-03-08T13:31:50.983Z,11.69
2018-03-08T13:34:18.630Z,11.39
2018-03-08T13:39:19.097Z,11.28
2018-03-08T13:41:46.760Z,11.39
2018-03-08T13:44:14.390Z,11.29
2018-03-08T13:46:41.991Z,11.25
2018-03-08T13:49:21.662Z,11.36
2018-03-08T13:51:49.332Z,11.33
2018-03-08T13:54:16.981Z,11.46
2018-03-08T13:56:44.601Z,11.56
2018-03-08T13:59:12.249Z,11.54
2018-03-08T14:01:39.913Z,11.55
2018-03-08T14:04:07.560Z,11.65
2018-03-08T14:06:35.168Z,11.85
2018-03-08T14:09:02.809Z,11.86
2018-03-08T14:11:30.411Z,11.76
2018-03-08T14:13:58.092Z,11.83
2018-03-08T14:16:25.752Z,12.02
2018-03-08T14:18:53.412Z,13.05
2018-03-08T14:21:21.036Z,13.26
2018-03-08T14:23:48.676Z,13.56
2018-03-08T14:26:16.270Z,13.19
2018-03-08T14:28:43.920Z,12.87
2018-03-08T14:31:11.548Z,12.73
2018-03-08T14:33:39.188Z,12.67
2018-03-08T14:36:06.813Z,12.36
2018-03-08T14:38:34.474Z,12.08
2018-03-08T14:41:02.104Z,11.95
2018-03-08T14:43:29.712Z,12.08
2018-03-08T14:45:57.356Z,11.90
2018-03-08T14:48:25.012Z,11.81
2018-03-08T14:50:52.719Z,11.76
2018-03-08T14:53:20.350Z,11.79
2018-03-08T14:55:48.005Z,11.81
2018-03-08T14:58:15.610Z,12.09
2018-03-08T15:00:43.270Z,12.16
2018-03-08T15:03:10.892Z,12.24
2018-03-08T15:05:38.545Z,12.26
2018-03-08T15:08:06.153Z,12.50
2018-03-08T15:10:33.815Z,12.60
2018-03-08T15:13:01.421Z,12.60
2018-03-08T15:15:29.071Z,12.75
2018-03-08T15:17:56.688Z,12.90
2018-03-08T15:20:24.361Z,12.92
2018-03-08T15:22:52.003Z,12.89
2018-03-08T15:25:19.660Z,12.86
2018-03-08T15:27:47.310Z,12.80
2018-03-08T15:30:14.925Z,12.67
2018-03-08T15:32:42.577Z,12.60
2018-03-08T15:35:10.193Z,12.55
2018-03-08T15:37:37.849Z,12.38
2018-03-08T15:40:05.538Z,12.35
2018-03-08T15:42:33.165Z,12.43
2018-03-08T15:45:00.785Z,12.31
2018-03-08T15:47:28.448Z,12.30
2018-03-08T15:49:56.060Z,12.30
2018-03-08T15:52:23.707Z,12.34
2018-03-08T15:54:51.320Z,12.39
2018-03-08T15:57:19.022Z,12.20
2018-03-08T15:59:46.884Z,12.15
2018-03-08T16:02:16.457Z,12.13
2018-03-08T16:04:44.255Z,12.14
2018-03-08T16:07:31.496Z,12.08
2018-03-08T16:13:01.351Z,12.06
2018-03-08T16:15:29.098Z,12.07
2018-03-08T16:17:56.875Z,12.08
2018-03-08T16:20:24.601Z,12.04
2018-03-08T16:22:52.449Z,11.98
2018-03-08T16:25:20.401Z,11.98
2018-03-08T16:27:48.291Z,12.02
2018-03-08T16:30:16.633Z,11.98
2018-03-08T16:32:44.533Z,12.00
2018-03-08T16:35:12.409Z,11.94
2018-03-08T16:37:40.596Z,11.94
2018-03-08T16:40:08.444Z,11.86
2018-03-08T16:42:36.302Z,11.88
2018-03-08T16:45:04.272Z,11.93
2018-03-08T16:47:32.140Z,12.02
2018-03-08T16:49:59.932Z,11.84
2018-03-08T16:52:27.725Z,11.76
2018-03-08T16:54:55.562Z,11.69
2018-03-08T16:57:23.440Z,11.56
2018-03-08T16:59:51.371Z,11.68
2018-03-08T17:02:19.333Z,11.60
2018-03-08T17:04:47.311Z,11.65
2018-03-08T17:07:15.177Z,11.65
2018-03-08T17:09:43.160Z,11.57
2018-03-08T17:12:11.122Z,11.50
2018-03-08T17:14:38.981Z,11.16
2018-03-08T17:17:06.882Z,10.47
2018-03-08T17:19:34.705Z,10.20
2018-03-08T17:22:02.468Z,10.01
2018-03-08T17:24:30.236Z,9.93
2018-03-08T17:26:57.999Z,9.91
2018-03-08T17:29:25.716Z,9.97
2018-03-08T17:31:53.529Z,9.99
2018-03-08T17:34:21.379Z,10.04
2018-03-08T17:36:49.157Z,10.02
2018-03-08T17:39:16.820Z,9.99
2018-03-08T17:41:44.585Z,9.84
2018-03-08T17:44:12.349Z,9.53
2018-03-08T17:46:40.110Z,9.17
2018-03-08T17:49:07.876Z,8.85
2018-03-08T17:51:35.745Z,8.64
2018-03-08T17:54:03.549Z,8.47
2018-03-08T17:56:31.374Z,8.20
2018-03-08T17:58:59.141Z,7.96
2018-03-08T18:01:26.893Z,7.72
2018-03-08T18:03:54.564Z,7.60
2018-03-08T18:06:22.280Z,7.63
2018-03-08T18:08:50.092Z,7.54
2018-03-08T18:11:17.819Z,7.42
2018-03-08T18:13:45.621Z,7.36
2018-03-08T18:16:13.390Z,7.27
2018-03-08T18:18:41.353Z,7.15
2018-03-08T18:21:09.014Z,7.17
2018-03-08T18:23:36.780Z,7.13
2018-03-08T18:26:04.484Z,7.27
2018-03-08T18:28:32.206Z,7.33
2018-03-08T18:31:00.077Z,7.20
2018-03-08T18:33:27.838Z,7.20
2018-03-08T18:35:55.556Z,7.18
2018-03-08T18:38:23.365Z,7.11
2018-03-08T18:40:51.130Z,7.06
2018-03-08T18:43:18.954Z,6.87
2018-03-08T18:45:46.659Z,6.96
2018-03-08T18:48:14.422Z,6.84
2018-03-08T18:50:42.243Z,6.79
2018-03-08T18:53:10.055Z,6.79
2018-03-08T18:55:37.820Z,6.80
2018-03-08T18:58:17.358Z,6.78
2018-03-08T19:00:45.123Z,6.62
2018-03-08T19:03:12.903Z,6.68
2018-03-08T19:05:40.548Z,6.70
2018-03-08T19:08:08.317Z,6.94
2018-03-08T19:10:35.976Z,7.10
2018-03-08T19:13:03.843Z,6.99
2018-03-08T19:15:31.556Z,6.89
2018-03-08T19:17:59.384Z,6.77
2018-03-08T19:20:27.138Z,6.68
2018-03-08T19:22:54.959Z,6.74
2018-03-08T19:25:22.844Z,6.63
2018-03-08T19:27:50.631Z,6.53
2018-03-08T19:30:18.319Z,6.58
2018-03-08T19:32:46.158Z,6.56
2018-03-08T19:35:13.923Z,6.50
2018-03-08T19:37:41.726Z,6.49
2018-03-08T19:40:09.393Z,6.78
2018-03-08T19:42:37.215Z,6.62
2018-03-08T19:45:04.833Z,6.58
2018-03-08T19:47:32.580Z,6.59
2018-03-08T19:50:00.196Z,6.47
2018-03-08T19:52:27.851Z,6.51
2018-03-08T19:54:55.454Z,6.54
2018-03-08T19:57:23.141Z,6.59
2018-03-08T19:59:50.740Z,6.45
2018-03-08T20:02:18.449Z,6.64
2018-03-08T20:04:46.072Z,6.78
2018-03-08T20:07:13.800Z,6.85
2018-03-08T20:09:41.450Z,7.19
2018-03-08T20:12:09.065Z,7.56
2018-03-08T20:14:36.713Z,7.66
2018-03-08T20:17:04.313Z,7.62
2018-03-08T20:19:31.958Z,6.89
2018-03-08T20:21:59.610Z,6.57
2018-03-08T20:24:27.289Z,6.34
2018-03-08T20:26:54.961Z,6.20
2018-03-08T20:29:22.619Z,6.06
2018-03-08T20:31:50.228Z,6.25
2018-03-08T20:34:17.881Z,6.35
2018-03-08T20:36:45.504Z,6.17
2018-03-08T20:39:13.169Z,6.25
2018-03-08T20:41:40.796Z,6.48
2018-03-08T20:44:08.438Z,6.67
2018-03-08T20:46:36.028Z,7.01
2018-03-08T20:49:03.680Z,7.02
2018-03-08T20:51:31.287Z,6.85
2018-03-08T20:53:58.945Z,6.07
2018-03-08T20:56:26.550Z,5.81
2018-03-08T20:58:54.212Z,6.11
2018-03-08T21:01:21.823Z,6.31
2018-03-08T21:03:49.474Z,6.13
2018-03-08T21:06:17.094Z,6.52
2018-03-08T21:08:44.748Z,6.79
2018-03-08T21:11:12.364Z,6.93
2018-03-08T21:13:40.016Z,7.08
2018-03-08T21:16:08.109Z,6.81
2018-03-08T21:18:35.802Z,6.66
2018-03-08T21:21:03.415Z,6.54
2018-03-08T21:23:31.072Z,6.15
2018-03-08T21:25:58.741Z,5.64
2018-03-08T21:28:26.392Z,5.42
2018-03-08T21:30:53.998Z,5.44
2018-03-08T21:33:21.655Z,5.68
2018-03-08T21:35:49.275Z,5.63
2018-03-08T21:38:16.911Z,5.61
2018-03-08T21:40:44.517Z,5.34
2018-03-08T21:43:12.165Z,5.26
2018-03-08T21:45:39.784Z,5.65
2018-03-08T21:48:07.437Z,5.70
2018-03-08T21:50:35.040Z,5.61
2018-03-08T21:53:02.684Z,5.48
2018-03-08T21:55:30.371Z,5.53
2018-03-08T21:57:58.017Z,5.51
2018-03-08T22:00:25.608Z,5.73
2018-03-08T22:02:53.248Z,5.89
2018-03-08T22:05:20.856Z,5.93
2018-03-08T22:07:48.496Z,5.98
2018-03-08T22:10:16.116Z,6.16
2018-03-08T22:12:43.712Z,6.39
2018-03-08T22:15:11.373Z,6.15
2018-03-08T22:17:38.972Z,5.94
2018-03-08T22:20:06.625Z,5.81
2018-03-08T22:22:34.348Z,5.83
2018-03-08T22:25:02.355Z,5.84
2018-03-08T22:27:30.198Z,5.73
2018-03-08T22:29:58.027Z,5.61
2018-03-08T22:32:25.665Z,5.58
2018-03-08T22:34:53.661Z,5.62
2018-03-08T22:37:21.298Z,5.71
2018-03-08T22:39:49.397Z,5.78
2018-03-08T22:42:17.037Z,5.91
2018-03-08T22:44:44.798Z,5.92
2018-03-08T22:47:12.456Z,5.79
2018-03-08T22:49:40.411Z,6.01
2018-03-08T22:52:08.033Z,6.09
2018-03-08T22:54:36.059Z,5.94
2018-03-08T22:57:03.684Z,5.77
2018-03-08T22:59:31.593Z,5.69
2018-03-08T23:02:14.886Z,5.53
2018-03-08T23:04:42.938Z,5.48
2018-03-08T23:07:10.788Z,5.48
2018-03-08T23:09:38.488Z,5.50
2018-03-08T23:12:06.119Z,5.63
2018-03-08T23:14:34.152Z,5.62
2018-03-08T23:17:01.854Z,5.61
2018-03-08T23:19:29.516Z,5.56
2018-03-08T23:21:57.248Z,5.77
2018-03-08T23:24:24.908Z,5.86
2018-03-08T23:26:52.561Z,5.80
2018-03-08T23:29:20.481Z,5.90
2018-03-08T23:31:48.099Z,5.76
2018-03-08T23:34:15.983Z,5.95
2018-03-08T23:36:43.584Z,6.07
2018-03-08T23:39:11.221Z,6.06
2018-03-08T23:41:38.864Z,6.22
2018-03-08T23:44:06.504Z,6.23
2018-03-08T23:46:34.278Z,6.08
2018-03-08T23:49:01.984Z,5.84
2018-03-08T23:51:29.603Z,5.31
2018-03-08T23:53:57.243Z,5.08
2018-03-08T23:56:24.865Z,5.04
2018-03-08T23:58:52.536Z,5.21
